createdAt,value
2022-11-21T00:00:03.293Z,0.80
2022-11-21T00:02:33.765Z,0.95
2022-11-21T00:05:04.015Z,2.22
2022-11-21T00:07:34.329Z,1.05
2022-11-21T00:10:04.489Z,1.60
2022-11-21T00:12:34.718Z,0.73
2022-11-21T00:15:04.867Z,6.15
2022-11-21T00:17:35.117Z,1.88
2022-11-21T00:20:05.286Z,3.47
2022-11-21T00:22:35.566Z,0.85
2022-11-21T00:25:06.435Z,2.60
2022-11-21T00:27:36.671Z,0.63
2022-11-21T00:30:08.531Z,1.05
2022-11-21T00:32:38.780Z,0.85
2022-11-21T00:35:09.457Z,1.48
2022-11-21T00:37:39.782Z,1.42
2022-11-21T00:40:10.484Z,1.38
2022-11-21T00:42:40.767Z,2.00
2022-11-21T00:45:11.451Z,0.90
2022-11-21T00:47:41.667Z,1.73
2022-11-21T00:50:13.026Z,2.20
2022-11-21T00:52:43.211Z,1.50
2022-11-21T00:55:13.518Z,3.38
2022-11-21T00:57:45.274Z,0.10
2022-11-21T01:00:16.726Z,1.13
2022-11-21T01:02:47.139Z,0.47
2022-11-21T01:05:17.702Z,0.80
2022-11-21T01:07:50.106Z,1.50
2022-11-21T01:10:20.429Z,1.33
2022-11-21T01:12:50.642Z,0.88
2022-11-21T01:15:21.113Z,0.88
2022-11-21T01:17:51.432Z,1.13
2022-11-21T01:20:21.676Z,2.03
2022-11-21T01:22:51.956Z,0.73
2022-11-21T01:25:22.196Z,0.75
2022-11-21T01:27:52.358Z,1.88
2022-11-21T01:30:22.617Z,1.77
2022-11-21T01:32:52.894Z,1.00
2022-11-21T01:35:23.201Z,2.13
2022-11-21T01:37:53.356Z,0.63
2022-11-21T01:40:23.570Z,0.90
2022-11-21T01:43:16.747Z,2.40
2022-11-21T01:46:09.990Z,7.18
2022-11-21T01:49:01.405Z,2.80
2022-11-21T01:51:39.164Z,0.80
2022-11-21T01:54:35.732Z,1.30
2022-11-21T01:57:15.643Z,0.50
2022-11-21T01:59:52.045Z,1.75
2022-11-21T02:02:26.585Z,2.72
2022-11-21T02:04:58.112Z,7.07
2022-11-21T02:07:31.234Z,2.92
2022-11-21T02:10:03.965Z,4.82
2022-11-21T02:12:46.237Z,4.95
2022-11-21T02:15:16.720Z,3.10
2022-11-21T02:17:46.954Z,4.55
2022-11-21T02:20:20.070Z,2.92
2022-11-21T02:22:57.488Z,4.65
2022-11-21T02:25:31.562Z,1.73
2022-11-21T02:28:10.150Z,3.05
2022-11-21T02:30:42.495Z,3.47
2022-11-21T02:33:13.639Z,1.88
2022-11-21T02:35:44.302Z,2.10
2022-11-21T02:38:27.724Z,1.25
2022-11-21T02:41:09.920Z,1.90
2022-11-21T02:43:59.387Z,1.20
2022-11-21T02:46:31.323Z,0.95
2022-11-21T02:49:01.817Z,1.83
2022-11-21T02:51:32.059Z,0.95
2022-11-21T02:54:02.324Z,6.20
2022-11-21T02:56:32.808Z,1.10
2022-11-21T02:59:03.362Z,5.13
2022-11-21T03:01:33.669Z,1.48
2022-11-21T03:04:04.011Z,2.38
2022-11-21T03:06:34.263Z,3.35
2022-11-21T03:09:04.464Z,1.55
2022-11-21T03:11:34.660Z,2.17
2022-11-21T03:14:04.830Z,2.70
2022-11-21T03:16:35.162Z,3.50
2022-11-21T03:19:05.741Z,3.70
2022-11-21T03:21:35.992Z,2.53
2022-11-21T03:24:06.361Z,4.57
2022-11-21T03:26:39.811Z,1.60
2022-11-21T03:29:10.240Z,5.38
2022-11-21T03:31:40.636Z,1.17
2022-11-21T03:34:11.009Z,0.95
2022-11-21T03:36:41.239Z,2.13
2022-11-21T03:39:11.628Z,0.98
2022-11-21T03:41:41.909Z,1.10
2022-11-21T03:44:14.343Z,2.95
2022-11-21T03:46:47.002Z,1.20
2022-11-21T03:49:18.595Z,4.70
2022-11-21T03:51:48.892Z,2.15
2022-11-21T03:54:19.111Z,2.33
2022-11-21T03:56:49.392Z,2.95
2022-11-21T03:59:19.984Z,2.05
2022-11-21T04:01:50.976Z,0.95
2022-11-21T04:04:22.446Z,1.67
2022-11-21T04:06:52.639Z,3.40
2022-11-21T04:09:22.880Z,2.38
2022-11-21T04:11:53.178Z,1.63
2022-11-21T04:14:23.340Z,3.38
2022-11-21T04:16:53.666Z,1.95
2022-11-21T04:19:23.810Z,3.17
2022-11-21T04:21:54.053Z,2.08
2022-11-21T04:24:24.250Z,1.92
2022-11-21T04:26:56.127Z,1.65
2022-11-21T04:29:26.553Z,2.15
2022-11-21T04:31:56.866Z,4.85
2022-11-21T04:34:27.555Z,5.93
2022-11-21T04:36:58.045Z,1.77
2022-11-21T04:39:28.292Z,0.57
2022-11-21T04:41:58.486Z,3.15
2022-11-21T04:44:30.362Z,4.35
2022-11-21T04:47:05.261Z,1.80
2022-11-21T04:49:36.117Z,3.35
2022-11-21T04:52:06.342Z,3.28
2022-11-21T04:54:36.814Z,1.52
2022-11-21T04:57:07.061Z,0.60
2022-11-21T04:59:37.326Z,1.80
2022-11-21T05:02:07.583Z,5.00
2022-11-21T05:04:37.817Z,0.85
2022-11-21T05:07:08.592Z,1.00
2022-11-21T05:09:38.901Z,2.55
2022-11-21T05:12:27.426Z,1.92
2022-11-21T05:14:57.860Z,1.60
2022-11-21T05:17:29.640Z,0.65
2022-11-21T05:19:59.909Z,3.80
2022-11-21T05:22:30.312Z,2.92
2022-11-21T05:25:00.578Z,2.90
2022-11-21T05:27:30.785Z,1.35
2022-11-21T05:30:01.018Z,1.73
2022-11-21T05:32:31.218Z,2.97
2022-11-21T05:35:01.478Z,1.20
2022-11-21T05:37:31.725Z,1.58
2022-11-21T05:40:02.158Z,1.15
2022-11-21T05:42:50.185Z,1.00
2022-11-21T05:45:20.701Z,1.95
2022-11-21T05:47:51.555Z,1.45
2022-11-21T05:50:21.889Z,0.70
2022-11-21T05:52:52.386Z,1.13
2022-11-21T05:55:22.609Z,1.50
2022-11-21T05:57:52.841Z,1.70
2022-11-21T06:00:23.231Z,1.80
2022-11-21T06:03:11.274Z,3.25
2022-11-21T06:05:41.586Z,1.35
2022-11-21T06:08:12.711Z,2.30
2022-11-21T06:10:42.948Z,2.72
2022-11-21T06:13:23.760Z,5.88
2022-11-21T06:16:14.436Z,2.20
2022-11-21T06:18:53.837Z,0.95
2022-11-21T06:21:29.927Z,3.72
2022-11-21T06:24:01.546Z,2.38
2022-11-21T06:26:31.900Z,1.70
2022-11-21T06:29:02.168Z,2.63
2022-11-21T06:31:33.546Z,1.55
2022-11-21T06:34:03.874Z,2.33
2022-11-21T06:36:34.075Z,0.65
2022-11-21T06:39:04.483Z,2.28
2022-11-21T06:41:34.752Z,4.03
2022-11-21T06:44:04.999Z,2.67
2022-11-21T06:46:35.172Z,3.45
2022-11-21T06:49:05.437Z,2.25
2022-11-21T06:51:35.771Z,2.85
2022-11-21T06:54:05.988Z,3.47
2022-11-21T06:56:36.192Z,2.80
2022-11-21T06:59:06.401Z,2.28
2022-11-21T07:01:36.721Z,3.15
2022-11-21T07:04:07.266Z,2.60
2022-11-21T07:06:37.903Z,1.20
2022-11-21T07:12:18.206Z,7.88
2022-11-21T07:14:48.494Z,2.38
2022-11-21T07:17:18.846Z,2.20
2022-11-21T07:19:50.045Z,1.50
2022-11-21T07:22:20.454Z,2.28
2022-11-21T07:24:50.728Z,1.63
2022-11-21T07:27:21.113Z,2.50
2022-11-21T07:29:51.609Z,3.20
2022-11-21T07:32:22.062Z,3.35
2022-11-21T07:34:52.359Z,0.98
2022-11-21T07:37:22.701Z,2.03
2022-11-21T07:39:52.953Z,4.95
2022-11-21T07:42:23.269Z,3.65
2022-11-21T07:44:53.571Z,4.00
2022-11-21T07:47:23.780Z,1.65
2022-11-21T07:49:54.085Z,3.17
2022-11-21T07:52:25.639Z,1.23
2022-11-21T07:54:55.994Z,3.63
2022-11-21T07:57:26.980Z,2.40
2022-11-21T07:59:57.384Z,2.00
2022-11-21T08:02:29.454Z,2.00
2022-11-21T08:05:00.614Z,0.95
2022-11-21T08:07:30.971Z,5.45
2022-11-21T08:10:01.571Z,3.17
2022-11-21T08:12:31.781Z,1.65
2022-11-21T08:15:02.335Z,1.25
2022-11-21T08:17:32.735Z,2.35
2022-11-21T08:20:03.657Z,2.47
2022-11-21T08:22:33.926Z,3.38
2022-11-21T08:25:04.086Z,1.63
2022-11-21T08:27:34.299Z,3.95
2022-11-21T08:30:04.640Z,0.98
2022-11-21T08:32:34.822Z,5.05
2022-11-21T08:35:05.649Z,3.80
2022-11-21T08:37:35.837Z,2.67
2022-11-21T08:40:06.868Z,2.72
2022-11-21T08:42:37.553Z,1.02
2022-11-21T08:45:12.139Z,1.50
2022-11-21T08:47:43.622Z,0.73
2022-11-21T08:50:14.480Z,0.50
2022-11-21T08:52:45.575Z,1.67
2022-11-21T08:55:16.210Z,3.08
2022-11-21T08:57:47.096Z,2.25
2022-11-21T09:00:19.287Z,1.27
2022-11-21T09:02:51.082Z,0.70
2022-11-21T09:05:22.155Z,0.70
2022-11-21T09:07:59.545Z,0.88
2022-11-21T09:10:31.340Z,1.75
2022-11-21T09:13:04.316Z,1.10
2022-11-21T09:15:52.358Z,1.35
2022-11-21T09:18:22.683Z,1.13
2022-11-21T09:20:53.318Z,0.75
2022-11-21T09:23:23.955Z,0.63
2022-11-21T09:25:54.467Z,0.57
2022-11-21T09:28:24.963Z,1.73
2022-11-21T09:30:55.381Z,1.30
2022-11-21T09:33:25.887Z,2.88
2022-11-21T09:35:56.313Z,0.80
2022-11-21T09:38:28.735Z,0.32
2022-11-21T09:41:38.904Z,0.90
2022-11-21T09:44:34.855Z,0.63
2022-11-21T09:47:27.966Z,1.60
2022-11-21T09:50:05.952Z,0.88
2022-11-21T09:52:47.103Z,1.48
2022-11-21T09:55:30.663Z,0.38
2022-11-21T09:58:06.404Z,0.82
2022-11-21T10:00:36.737Z,0.45
2022-11-21T10:03:07.033Z,1.70
2022-11-21T10:05:47.405Z,0.52
2022-11-21T10:08:41.620Z,1.10
2022-11-21T10:11:22.984Z,0.20
2022-11-21T10:14:05.423Z,0.32
2022-11-21T10:17:20.580Z,0.65
2022-11-21T10:20:05.836Z,2.90
2022-11-21T10:22:39.057Z,0.75
2022-11-21T10:25:24.021Z,1.58
2022-11-21T10:28:16.423Z,0.30
2022-11-21T10:30:48.311Z,1.17
2022-11-21T10:33:38.102Z,1.23
2022-11-21T10:36:28.736Z,0.20
2022-11-21T10:39:05.176Z,0.35
2022-11-21T10:42:14.447Z,0.73
2022-11-21T10:45:02.616Z,0.55
2022-11-21T10:47:39.501Z,1.50
2022-11-21T10:50:12.706Z,0.73
2022-11-21T10:52:52.589Z,1.38
2022-11-21T10:55:22.835Z,0.65
2022-11-21T10:57:56.648Z,0.43
2022-11-21T11:00:29.710Z,0.60
2022-11-21T11:03:02.053Z,1.48
2022-11-21T11:05:34.893Z,1.60
2022-11-21T11:08:12.260Z,0.98
2022-11-21T11:10:48.483Z,1.90
2022-11-21T11:13:45.675Z,0.35
2022-11-21T11:16:21.831Z,0.57
2022-11-21T11:19:12.158Z,2.08
2022-11-21T11:21:49.703Z,0.80
2022-11-21T11:24:22.281Z,1.15
2022-11-21T11:27:06.017Z,0.40
2022-11-21T11:29:51.331Z,1.17
2022-11-21T11:32:22.953Z,1.42
2022-11-21T11:34:53.441Z,1.83
2022-11-21T11:37:43.832Z,1.25
2022-11-21T11:40:40.055Z,2.15
2022-11-21T11:44:00.594Z,1.33
2022-11-21T11:47:20.577Z,0.20
2022-11-21T11:50:15.616Z,3.92
2022-11-21T11:52:47.057Z,0.40
2022-11-21T11:55:40.683Z,1.00
2022-11-21T11:58:30.007Z,0.20
2022-11-21T12:01:08.177Z,2.97
2022-11-21T12:03:50.006Z,4.20
2022-11-21T12:09:49.586Z,2.25
2022-11-21T12:12:48.043Z,2.05
2022-11-21T12:15:42.087Z,1.77
2022-11-21T12:18:24.588Z,3.55
2022-11-21T12:21:03.764Z,2.13
2022-11-21T12:23:43.164Z,5.63
2022-11-21T12:26:39.583Z,2.08
2022-11-21T12:29:39.888Z,3.83
2022-11-21T12:32:30.855Z,0.60
2022-11-21T12:35:22.683Z,2.95
2022-11-21T12:38:44.593Z,1.80
2022-11-21T12:41:36.503Z,2.88
2022-11-21T12:44:35.638Z,2.95
2022-11-21T12:47:29.111Z,4.32
2022-11-21T12:50:27.789Z,3.80
2022-11-21T12:53:25.326Z,1.30
2022-11-21T12:56:03.138Z,4.13
2022-11-21T12:58:44.894Z,1.38
2022-11-21T13:01:38.856Z,2.15
2022-11-21T13:04:16.511Z,4.32
2022-11-21T13:06:50.604Z,6.63
2022-11-21T13:09:24.513Z,7.90
2022-11-21T13:12:03.562Z,9.82
2022-11-21T13:14:55.353Z,12.68
2022-11-21T13:17:28.761Z,8.88
2022-11-21T13:20:16.567Z,5.22
2022-11-21T13:22:47.181Z,7.00
2022-11-21T13:25:36.125Z,11.90
2022-11-21T13:28:21.267Z,8.05
2022-11-21T13:30:54.381Z,10.43
2022-11-21T13:33:40.059Z,9.43
2022-11-21T13:36:36.808Z,9.82
2022-11-21T13:39:06.927Z,9.85
2022-11-21T13:41:58.001Z,7.68
2022-11-21T13:44:34.555Z,7.25
2022-11-21T13:47:11.928Z,11.68
2022-11-21T13:49:47.221Z,6.72
2022-11-21T13:52:29.335Z,7.28
2022-11-21T13:55:23.358Z,7.57
2022-11-21T13:58:25.221Z,8.85
2022-11-21T14:01:17.189Z,11.20
2022-11-21T14:04:28.488Z,8.90
2022-11-21T14:07:18.547Z,6.13
2022-11-21T14:09:57.933Z,8.23
2022-11-21T14:12:44.369Z,11.68
2022-11-21T14:15:23.937Z,9.18
2022-11-21T14:18:00.229Z,6.25
2022-11-21T14:20:31.893Z,9.30
2022-11-21T14:23:17.220Z,7.78
2022-11-21T14:26:04.767Z,7.80
2022-11-21T14:28:38.285Z,6.88
2022-11-21T14:31:11.571Z,8.52
2022-11-21T14:33:47.254Z,5.80
2022-11-21T14:36:18.939Z,9.18
2022-11-21T14:39:07.685Z,8.02
2022-11-21T14:41:41.785Z,6.15
2022-11-21T14:44:11.989Z,6.72
2022-11-21T14:46:44.283Z,5.50
2022-11-21T14:49:20.428Z,6.57
2022-11-21T14:52:01.534Z,9.20
2022-11-21T14:55:28.544Z,5.00
2022-11-21T14:57:48.147Z,7.18
2022-11-21T15:00:58.539Z,3.70
2022-11-21T15:03:26.032Z,6.88
2022-11-21T15:06:08.698Z,5.15
2022-11-21T15:11:52.825Z,5.82
2022-11-21T15:14:32.183Z,6.95
2022-11-21T15:17:05.893Z,6.03
2022-11-21T15:19:36.224Z,3.55
2022-11-21T15:22:06.533Z,3.10
2022-11-21T15:24:47.179Z,9.68
2022-11-21T15:27:29.627Z,3.80
2022-11-21T15:30:18.080Z,7.13
2022-11-21T15:33:08.202Z,4.18
2022-11-21T15:35:47.571Z,3.47
2022-11-21T15:38:42.817Z,5.72
2022-11-21T15:41:26.995Z,3.72
2022-11-21T15:44:24.728Z,3.25
2022-11-21T15:46:55.228Z,3.22
2022-11-21T15:49:33.018Z,5.30
2022-11-21T15:52:09.030Z,3.17
2022-11-21T15:54:39.984Z,5.15
2022-11-21T15:57:12.464Z,4.03
2022-11-21T15:59:43.130Z,4.38
2022-11-21T16:02:16.354Z,2.25
2022-11-21T16:04:47.329Z,4.10
2022-11-21T16:07:18.686Z,2.63
2022-11-21T16:09:49.159Z,2.40
2022-11-21T16:12:19.711Z,2.90
2022-11-21T16:14:50.008Z,4.03
2022-11-21T16:17:20.600Z,2.45
2022-11-21T16:19:50.953Z,2.05
2022-11-21T16:22:21.625Z,2.42
2022-11-21T16:24:51.878Z,3.95
2022-11-21T16:27:22.171Z,3.58
2022-11-21T16:29:52.440Z,5.32
2022-11-21T16:32:22.676Z,1.25
2022-11-21T16:34:53.563Z,1.77
2022-11-21T16:37:23.973Z,2.80
2022-11-21T16:39:54.116Z,2.28
2022-11-21T16:42:24.381Z,1.52
2022-11-21T16:44:54.660Z,2.50
2022-11-21T16:47:24.933Z,3.88
2022-11-21T16:49:55.170Z,3.75
2022-11-21T16:52:25.367Z,2.75
2022-11-21T16:54:55.621Z,2.92
2022-11-21T16:57:25.819Z,2.35
2022-11-21T16:59:57.755Z,3.22
2022-11-21T17:02:29.446Z,1.88
2022-11-21T17:04:59.787Z,1.83
2022-11-21T17:07:30.000Z,2.20
2022-11-21T17:10:00.223Z,1.77
2022-11-21T17:12:30.414Z,2.13
2022-11-21T17:15:00.644Z,2.95
2022-11-21T17:17:30.872Z,1.95
2022-11-21T17:20:01.120Z,2.30
2022-11-21T17:22:31.330Z,1.95
2022-11-21T17:25:01.630Z,1.38
2022-11-21T17:27:31.939Z,1.23
2022-11-21T17:30:02.296Z,1.30
2022-11-21T17:32:32.753Z,1.25
2022-11-21T17:35:03.053Z,1.42
2022-11-21T17:37:33.338Z,2.38
2022-11-21T17:40:03.603Z,2.00
2022-11-21T17:42:33.843Z,1.67
2022-11-21T17:45:04.044Z,2.58
2022-11-21T17:47:36.542Z,2.53
2022-11-21T17:50:06.964Z,1.63
2022-11-21T17:52:37.454Z,1.90
2022-11-21T17:55:08.388Z,1.55
2022-11-21T17:57:38.582Z,2.00
2022-11-21T18:00:12.868Z,1.10
2022-11-21T18:02:43.331Z,1.05
2022-11-21T18:05:13.674Z,2.42
2022-11-21T18:07:44.320Z,1.45
2022-11-21T18:10:41.370Z,1.60
2022-11-21T18:13:04.897Z,1.35
2022-11-21T18:15:36.652Z,2.63
2022-11-21T18:18:06.938Z,0.75
2022-11-21T18:20:37.233Z,2.78
2022-11-21T18:23:07.413Z,1.77
2022-11-21T18:25:41.324Z,0.90
2022-11-21T18:28:11.696Z,0.85
2022-11-21T18:30:41.881Z,1.05
2022-11-21T18:33:16.057Z,0.40
2022-11-21T18:35:48.987Z,2.60
2022-11-21T18:38:45.967Z,2.00
2022-11-21T18:41:13.033Z,1.20
2022-11-21T18:43:45.069Z,1.33
2022-11-21T18:46:16.644Z,0.95
2022-11-21T18:49:02.076Z,2.20
2022-11-21T18:51:35.828Z,1.00
2022-11-21T18:54:11.979Z,1.83
2022-11-21T18:56:42.740Z,1.38
2022-11-21T18:59:13.016Z,0.50
2022-11-21T19:01:43.621Z,1.02
2022-11-21T19:04:13.962Z,1.25
2022-11-21T19:06:44.326Z,2.15
2022-11-21T19:09:14.624Z,1.70
2022-11-21T19:11:45.122Z,0.97
2022-11-21T19:14:15.442Z,0.75
2022-11-21T19:16:45.696Z,1.38
2022-11-21T19:22:07.902Z,0.50
2022-11-21T19:24:38.319Z,1.92
2022-11-21T19:27:08.886Z,1.85
2022-11-21T19:29:39.076Z,0.67
2022-11-21T19:32:09.755Z,0.88
2022-11-21T19:34:39.865Z,1.80
2022-11-21T19:37:10.458Z,6.35
2022-11-21T19:39:40.721Z,1.65
2022-11-21T19:42:10.891Z,3.10
2022-11-21T19:44:41.109Z,1.17
2022-11-21T19:47:12.387Z,2.13
2022-11-21T19:49:42.652Z,2.78
2022-11-21T19:52:12.841Z,0.75
2022-11-21T19:54:43.043Z,0.60
2022-11-21T19:57:14.158Z,0.73
2022-11-21T19:59:46.833Z,0.22
2022-11-21T20:02:23.110Z,0.80
2022-11-21T20:04:55.842Z,0.93
2022-11-21T20:07:26.883Z,0.57
2022-11-21T20:09:57.121Z,1.98
2022-11-21T20:12:27.405Z,0.65
2022-11-21T20:14:58.082Z,1.08
2022-11-21T20:17:28.347Z,0.50
2022-11-21T20:20:00.388Z,0.65
2022-11-21T20:22:31.356Z,0.65
2022-11-21T20:25:01.922Z,0.77
2022-11-21T20:27:33.611Z,1.08
2022-11-21T20:30:04.091Z,0.88
2022-11-21T20:32:37.534Z,0.85
2022-11-21T20:35:08.142Z,0.60
2022-11-21T20:37:38.593Z,0.13
2022-11-21T20:40:09.391Z,0.70
2022-11-21T20:42:39.645Z,0.20
2022-11-21T20:48:03.218Z,0.77
2022-11-21T20:51:20.900Z,0.52
2022-11-21T20:53:50.732Z,0.82
2022-11-21T20:56:20.611Z,0.55
2022-11-21T20:58:51.338Z,0.50
2022-11-21T21:01:23.104Z,1.83
2022-11-21T21:03:53.366Z,3.40
2022-11-21T21:06:25.704Z,3.00
2022-11-21T21:08:56.190Z,0.90
2022-11-21T21:14:18.180Z,1.23
2022-11-21T21:16:48.385Z,0.60
2022-11-21T21:19:19.080Z,1.13
2022-11-21T21:21:49.270Z,3.60
2022-11-21T21:24:20.092Z,2.55
2022-11-21T21:26:51.572Z,1.00
2022-11-21T21:29:23.327Z,1.25
2022-11-21T21:31:53.564Z,3.50
2022-11-21T21:34:24.951Z,4.20
2022-11-21T21:36:55.113Z,2.00
2022-11-21T21:39:26.284Z,1.42
2022-11-21T21:41:56.447Z,1.50
2022-11-21T21:44:32.778Z,2.92
2022-11-21T21:47:03.715Z,1.60
2022-11-21T21:49:34.022Z,2.28
2022-11-21T21:52:04.826Z,1.92
2022-11-21T21:54:35.317Z,3.88
2022-11-21T21:57:06.195Z,3.42
2022-11-21T21:59:36.753Z,3.58
2022-11-21T22:02:07.670Z,1.92
2022-11-21T22:04:38.260Z,1.90
2022-11-21T22:07:10.388Z,3.30
2022-11-21T22:09:41.136Z,3.85
2022-11-21T22:12:11.536Z,8.30
2022-11-21T22:14:42.112Z,3.35
2022-11-21T22:17:12.382Z,4.30
2022-11-21T22:19:42.684Z,3.05
2022-11-21T22:22:13.063Z,0.25
2022-11-21T22:24:43.779Z,1.00
2022-11-21T22:27:14.081Z,2.45
2022-11-21T22:29:44.281Z,3.95
2022-11-21T22:32:19.329Z,1.58
2022-11-21T22:34:50.071Z,3.20
2022-11-21T22:37:20.359Z,2.25
2022-11-21T22:39:50.898Z,3.38
2022-11-21T22:42:21.152Z,1.65
2022-11-21T22:44:51.510Z,2.28
2022-11-21T22:47:22.982Z,6.00
2022-11-21T22:49:53.452Z,1.20
2022-11-21T22:52:23.744Z,0.50
2022-11-21T22:54:54.129Z,1.02
2022-11-21T22:57:24.628Z,3.20
2022-11-21T22:59:55.262Z,1.15
2022-11-21T23:02:25.475Z,1.58
2022-11-21T23:04:55.845Z,2.45
2022-11-21T23:07:26.117Z,3.40
2022-11-21T23:09:56.518Z,2.10
2022-11-21T23:12:27.585Z,1.25
2022-11-21T23:14:58.108Z,1.98
2022-11-21T23:17:28.353Z,5.50
2022-11-21T23:19:58.552Z,2.53
2022-11-21T23:22:28.812Z,1.30
2022-11-21T23:24:59.066Z,2.92
2022-11-21T23:27:29.330Z,2.33
2022-11-21T23:29:59.520Z,1.33
2022-11-21T23:32:29.810Z,1.67
2022-11-21T23:35:00.037Z,2.30
2022-11-21T23:37:30.214Z,2.58
2022-11-21T23:40:00.456Z,1.30
2022-11-21T23:42:30.694Z,0.63
2022-11-21T23:45:01.806Z,0.95
2022-11-21T23:47:32.076Z,1.27
2022-11-21T23:50:02.239Z,0.68
2022-11-21T23:52:32.374Z,1.45
2022-11-21T23:55:02.774Z,0.68
2022-11-21T23:57:32.994Z,2.15
